Terminal Aerodrome Forecast
Issued by NWS Raleigh/Durham, NC

Home | Current Version | Previous Version | Text Only | Print | Product List | Glossary On
Versions: 1 2 3 4 5 6 7 8 9 10 11 12 13 14 15 16 17 18 19 20 21 22 23 24 25 26 27 28 29 30 31 32 33 34 35 36 37 38 39 40 41 42 43 44 45 46
000
FTUS42 KRAH 241742
TAFFAY
TAF
KFAY 241742Z 2418/2518 20010KT P6SM VCSH BKN015 BKN025 OVC035
      TEMPO 2418/2422 FEW015 BKN025 OVC035
     FM242200 22009KT P6SM BKN025 OVC080
     FM250800 26006KT P6SM OVC080
     FM251300 35005KT P6SM VCSH OVC060=

USA.gov is the U.S. government's official web portal to all federal, state and local government web resources and services.